createdAt,value
2022-10-05T00:01:35.287Z,75.45
2022-10-05T00:04:15.226Z,75.44
2022-10-05T00:06:57.987Z,75.45
2022-10-05T00:09:25.402Z,75.54
2022-10-05T00:11:52.441Z,75.63
2022-10-05T00:14:31.600Z,75.46
2022-10-05T00:16:58.933Z,75.68
2022-10-05T00:19:34.841Z,75.60
2022-10-05T00:22:32.789Z,75.65
2022-10-05T00:25:11.323Z,75.38
2022-10-05T00:27:38.934Z,75.82
2022-10-05T00:30:19.656Z,75.67
2022-10-05T00:32:47.603Z,75.76
2022-10-05T00:35:18.280Z,75.74
2022-10-05T00:37:53.390Z,75.81
2022-10-05T00:40:45.563Z,75.87
2022-10-05T00:43:24.576Z,76.07
2022-10-05T00:46:06.195Z,76.04
2022-10-05T00:48:44.163Z,76.09
2022-10-05T00:51:37.875Z,76.19
2022-10-05T00:54:33.236Z,76.20
2022-10-05T00:57:21.213Z,76.29
2022-10-05T01:00:08.607Z,76.29
2022-10-05T01:02:51.961Z,76.38
2022-10-05T01:05:51.444Z,76.49
2022-10-05T01:08:40.414Z,76.50
2022-10-05T01:11:22.658Z,76.68
2022-10-05T01:14:20.711Z,76.56
2022-10-05T01:16:59.365Z,76.86
2022-10-05T01:20:03.627Z,76.76
2022-10-05T01:23:34.204Z,76.84
2022-10-05T01:26:38.401Z,77.07
2022-10-05T01:29:37.792Z,77.03
2022-10-05T01:32:51.420Z,77.15
2022-10-05T01:35:36.454Z,77.08
2022-10-05T01:38:24.698Z,77.08
2022-10-05T01:41:19.730Z,77.26
2022-10-05T01:43:58.331Z,77.28
2022-10-05T01:46:38.299Z,77.86
2022-10-05T01:49:43.106Z,77.34
2022-10-05T01:53:06.735Z,77.36
2022-10-05T01:56:01.681Z,77.32
2022-10-05T01:58:38.910Z,77.52
2022-10-05T02:01:35.945Z,77.49
2022-10-05T02:04:30.983Z,77.62
2022-10-05T02:07:14.615Z,77.65
2022-10-05T02:10:00.356Z,77.69
2022-10-05T02:12:36.407Z,77.66
2022-10-05T02:15:22.649Z,77.65
2022-10-05T02:18:12.304Z,77.79
2022-10-05T02:20:43.503Z,77.92
2022-10-05T02:23:23.170Z,77.82
2022-10-05T02:25:55.113Z,77.93
2022-10-05T02:28:38.299Z,77.89
2022-10-05T02:31:14.197Z,78.10
2022-10-05T02:33:41.437Z,78.15
2022-10-05T02:36:19.735Z,78.18
2022-10-05T02:39:25.125Z,78.17
2022-10-05T02:42:27.536Z,78.12
2022-10-05T02:45:30.140Z,78.26
2022-10-05T02:48:16.772Z,78.58
2022-10-05T02:51:02.917Z,78.43
2022-10-05T02:53:59.112Z,78.30
2022-10-05T02:56:36.315Z,78.53
2022-10-05T02:59:09.295Z,78.65
2022-10-05T03:02:12.923Z,78.49
2022-10-05T03:05:13.072Z,78.59
2022-10-05T03:08:13.119Z,78.58
2022-10-05T03:11:03.252Z,78.56
2022-10-05T03:13:48.842Z,78.45
2022-10-05T03:17:03.340Z,78.66
2022-10-05T03:20:10.874Z,78.71
2022-10-05T03:22:50.944Z,78.68
2022-10-05T03:25:52.733Z,78.76
2022-10-05T03:28:49.192Z,78.75
2022-10-05T03:31:56.476Z,78.80
2022-10-05T03:34:37.640Z,79.32
2022-10-05T03:37:20.672Z,79.03
2022-10-05T03:40:10.015Z,79.11
2022-10-05T03:42:48.044Z,79.24
2022-10-05T03:45:37.818Z,79.20
2022-10-05T03:48:28.583Z,79.45
2022-10-05T03:51:10.871Z,79.45
2022-10-05T03:53:47.311Z,79.43
2022-10-05T03:56:29.935Z,79.63
2022-10-05T03:59:33.036Z,79.37
2022-10-05T04:02:06.440Z,79.40
2022-10-05T04:04:43.552Z,79.49
2022-10-05T04:07:28.279Z,79.72
2022-10-05T04:09:56.847Z,79.62
2022-10-05T04:12:51.161Z,79.50
2022-10-05T04:15:31.539Z,79.58
2022-10-05T04:18:13.484Z,79.67
2022-10-05T04:20:52.113Z,79.75
2022-10-05T04:23:22.228Z,79.98
2022-10-05T04:25:56.411Z,79.96
2022-10-05T04:28:56.340Z,80.09
2022-10-05T04:31:52.359Z,80.27
2022-10-05T04:34:36.856Z,80.32
2022-10-05T04:37:22.116Z,80.33
2022-10-05T04:40:10.763Z,80.43
2022-10-05T04:43:03.858Z,80.77
2022-10-05T04:46:05.464Z,80.74
2022-10-05T04:48:57.716Z,80.90
2022-10-05T04:51:54.724Z,80.79
2022-10-05T04:54:53.374Z,80.99
2022-10-05T04:57:44.904Z,81.16
2022-10-05T05:00:31.418Z,80.84
2022-10-05T05:03:29.747Z,80.49
2022-10-05T05:06:18.998Z,80.36
2022-10-05T05:09:27.975Z,80.27
2022-10-05T05:12:10.760Z,80.12
2022-10-05T05:14:53.749Z,80.13
2022-10-05T05:17:51.218Z,80.10
2022-10-05T05:20:45.243Z,79.95
2022-10-05T05:23:35.997Z,80.09
2022-10-05T05:26:27.821Z,80.00
2022-10-05T05:29:30.620Z,79.88
2022-10-05T05:32:35.071Z,80.01
2022-10-05T05:35:23.864Z,80.14
2022-10-05T05:38:27.243Z,80.29
2022-10-05T05:41:13.827Z,80.33
2022-10-05T05:43:56.481Z,80.36
2022-10-05T05:47:02.208Z,80.31
2022-10-05T05:50:10.667Z,80.55
2022-10-05T05:52:47.287Z,80.58
2022-10-05T05:55:34.273Z,80.37
2022-10-05T05:58:28.116Z,80.50
2022-10-05T06:01:04.363Z,80.60
2022-10-05T06:03:44.622Z,80.60
2022-10-05T06:06:18.148Z,80.81
2022-10-05T06:09:04.891Z,80.77
2022-10-05T06:12:00.769Z,80.66
2022-10-05T06:14:48.043Z,80.77
2022-10-05T06:17:29.027Z,80.73
2022-10-05T06:20:05.293Z,80.75
2022-10-05T06:22:42.488Z,80.61
2022-10-05T06:25:12.689Z,80.41
2022-10-05T06:28:11.206Z,80.13
2022-10-05T06:31:03.132Z,79.91
2022-10-05T06:33:53.920Z,79.83
2022-10-05T06:36:40.691Z,79.86
2022-10-05T06:39:29.011Z,79.75
2022-10-05T06:42:31.761Z,79.93
2022-10-05T06:45:42.314Z,79.65
2022-10-05T06:48:41.660Z,79.72
2022-10-05T06:51:59.859Z,79.62
2022-10-05T06:54:49.344Z,79.52
2022-10-05T06:58:23.076Z,79.45
2022-10-05T07:01:11.950Z,79.35
2022-10-05T07:04:00.105Z,79.41
2022-10-05T07:06:43.204Z,79.23
2022-10-05T07:09:41.353Z,79.10
2022-10-05T07:12:48.548Z,78.97
2022-10-05T07:15:42.577Z,78.68
2022-10-05T07:18:29.604Z,78.68
2022-10-05T07:21:07.449Z,78.75
2022-10-05T07:23:59.699Z,78.40
2022-10-05T07:26:46.117Z,78.44
2022-10-05T07:29:46.764Z,78.28
2022-10-05T07:32:34.663Z,77.81
2022-10-05T07:35:54.268Z,77.86
2022-10-05T07:39:18.543Z,77.69
2022-10-05T07:41:57.069Z,77.86
2022-10-05T07:44:37.408Z,77.72
2022-10-05T07:47:38.544Z,77.11
2022-10-05T07:50:39.537Z,77.14
2022-10-05T07:53:18.873Z,76.97
2022-10-05T07:55:55.173Z,76.73
2022-10-05T07:58:42.031Z,76.63
2022-10-05T08:01:29.668Z,76.40
2022-10-05T08:04:21.232Z,76.36
2022-10-05T08:07:03.073Z,76.11
2022-10-05T08:10:11.720Z,75.57
2022-10-05T08:13:16.335Z,75.17
2022-10-05T08:15:51.987Z,75.38
2022-10-05T08:18:56.720Z,75.17
2022-10-05T08:21:46.476Z,75.25
2022-10-05T08:24:40.791Z,74.79
2022-10-05T08:27:33.574Z,74.29
2022-10-05T08:30:13.499Z,74.09
2022-10-05T08:33:16.915Z,73.93
2022-10-05T08:35:50.089Z,73.51
2022-10-05T08:38:31.682Z,73.41
2022-10-05T08:41:47.205Z,72.76
2022-10-05T08:45:14.581Z,72.46
2022-10-05T08:48:04.488Z,72.52
2022-10-05T08:50:43.487Z,72.21
2022-10-05T08:53:26.873Z,71.41
2022-10-05T08:56:34.117Z,71.33
2022-10-05T08:59:58.662Z,71.32
2022-10-05T09:02:49.679Z,71.03
2022-10-05T09:05:51.624Z,71.03
2022-10-05T09:09:10.227Z,70.60
2022-10-05T09:12:20.272Z,70.16
2022-10-05T09:15:25.789Z,69.29
2022-10-05T09:18:27.743Z,69.16
2022-10-05T09:21:12.783Z,69.19
2022-10-05T09:23:43.332Z,69.10
2022-10-05T09:26:45.154Z,69.18
2022-10-05T09:29:42.630Z,68.63
2022-10-05T09:32:57.738Z,68.07
2022-10-05T09:36:06.727Z,68.30
2022-10-05T09:39:15.197Z,67.34
2022-10-05T09:42:38.317Z,66.95
2022-10-05T09:45:49.085Z,67.18
2022-10-05T09:48:39.196Z,66.38
2022-10-05T09:51:56.254Z,66.19
2022-10-05T09:55:20.823Z,66.40
2022-10-05T09:58:02.495Z,65.94
2022-10-05T10:00:38.241Z,65.71
2022-10-05T10:03:27.254Z,65.85
2022-10-05T10:06:22.286Z,65.72
2022-10-05T10:09:26.935Z,64.59
2022-10-05T10:12:27.287Z,64.13
2022-10-05T10:15:38.045Z,64.05
2022-10-05T10:18:07.959Z,63.92
2022-10-05T10:21:02.692Z,64.04
2022-10-05T10:24:00.386Z,64.63
2022-10-05T10:26:58.396Z,64.87
2022-10-05T10:30:03.739Z,64.01
2022-10-05T10:33:11.876Z,63.94
2022-10-05T10:35:53.602Z,63.17
2022-10-05T10:39:03.583Z,63.27
2022-10-05T10:42:03.467Z,61.83
2022-10-05T10:45:05.280Z,61.93
2022-10-05T10:47:47.956Z,61.87
2022-10-05T10:50:33.699Z,61.92
2022-10-05T10:53:21.846Z,61.62
2022-10-05T10:56:13.264Z,61.39
2022-10-05T10:59:41.457Z,61.10
2022-10-05T11:02:37.677Z,61.23
2022-10-05T11:05:38.585Z,59.81
2022-10-05T11:08:49.628Z,60.71
2022-10-05T11:11:38.231Z,60.61
2022-10-05T11:14:57.320Z,59.98
2022-10-05T11:18:01.595Z,59.46
2022-10-05T11:21:23.955Z,59.44
2022-10-05T11:24:38.983Z,59.50
2022-10-05T11:27:31.350Z,59.41
2022-10-05T11:30:23.062Z,59.03
2022-10-05T11:33:24.333Z,58.30
2022-10-05T11:36:03.466Z,58.99
2022-10-05T11:38:53.091Z,57.88
2022-10-05T11:41:59.328Z,58.32
2022-10-05T11:44:54.116Z,58.09
2022-10-05T11:48:04.695Z,57.93
2022-10-05T11:51:17.864Z,57.95
2022-10-05T11:54:19.944Z,57.14
2022-10-05T11:57:05.991Z,57.27
2022-10-05T11:59:54.664Z,57.21
2022-10-05T12:02:53.318Z,57.43
2022-10-05T12:05:49.846Z,57.60
2022-10-05T12:08:38.081Z,57.27
2022-10-05T12:11:05.029Z,56.86
2022-10-05T12:13:51.844Z,56.13
2022-10-05T12:16:39.400Z,55.44
2022-10-05T12:19:11.978Z,55.21
2022-10-05T12:22:33.756Z,55.52
2022-10-05T12:25:06.971Z,54.24
2022-10-05T12:27:40.762Z,54.36
2022-10-05T12:30:29.494Z,54.48
2022-10-05T12:33:06.775Z,54.57
2022-10-05T12:35:53.731Z,54.95
2022-10-05T12:38:32.938Z,54.21
2022-10-05T12:41:40.415Z,54.13
2022-10-05T12:44:35.408Z,54.61
2022-10-05T12:47:27.427Z,54.34
2022-10-05T12:50:14.545Z,54.49
2022-10-05T12:53:22.546Z,54.18
2022-10-05T12:57:05.183Z,54.66
2022-10-05T12:59:53.532Z,54.65
2022-10-05T13:03:02.336Z,54.22
2022-10-05T13:06:09.335Z,53.56
2022-10-05T13:09:00.252Z,53.25
2022-10-05T13:12:00.463Z,54.02
2022-10-05T13:15:23.877Z,53.06
2022-10-05T13:18:35.911Z,53.64
2022-10-05T13:21:19.512Z,54.13
2022-10-05T13:23:51.673Z,53.44
2022-10-05T13:26:36.022Z,53.50
2022-10-05T13:29:18.584Z,53.68
2022-10-05T13:31:54.286Z,52.62
2022-10-05T13:34:30.792Z,52.80
2022-10-05T13:37:27.716Z,53.37
2022-10-05T13:40:06.750Z,52.98
2022-10-05T13:43:23.191Z,52.63
2022-10-05T13:46:05.485Z,52.44
2022-10-05T13:49:19.119Z,52.42
2022-10-05T13:52:15.229Z,52.97
2022-10-05T13:54:54.542Z,53.44
2022-10-05T13:58:03.380Z,53.57
2022-10-05T14:00:40.020Z,54.02
2022-10-05T14:03:27.579Z,54.22
2022-10-05T14:05:58.152Z,54.12
2022-10-05T14:08:29.846Z,53.68
2022-10-05T14:10:58.142Z,53.77
2022-10-05T14:13:34.172Z,54.38
2022-10-05T14:16:13.402Z,54.57
2022-10-05T14:18:58.671Z,54.56
2022-10-05T14:21:31.548Z,54.69
2022-10-05T14:24:42.363Z,54.65
2022-10-05T14:27:27.464Z,55.08
2022-10-05T14:30:00.471Z,54.89
2022-10-05T14:32:47.484Z,54.40
2022-10-05T14:35:20.678Z,53.92
2022-10-05T14:38:17.581Z,53.48
2022-10-05T14:40:44.688Z,53.61
2022-10-05T14:43:14.823Z,53.47
2022-10-05T14:46:23.236Z,54.11
2022-10-05T14:49:13.589Z,54.20
2022-10-05T14:51:42.764Z,54.55
2022-10-05T14:54:44.037Z,54.07
2022-10-05T14:57:39.240Z,54.62
2022-10-05T15:00:18.724Z,54.53
2022-10-05T15:03:10.693Z,55.06
2022-10-05T15:05:51.119Z,55.38
2022-10-05T15:08:54.455Z,55.71
2022-10-05T15:11:51.536Z,54.83
2022-10-05T15:14:32.056Z,54.75
2022-10-05T15:17:12.664Z,55.15
2022-10-05T15:20:10.500Z,55.26
2022-10-05T15:23:25.628Z,55.65
2022-10-05T15:26:12.179Z,56.03
2022-10-05T15:29:01.164Z,55.82
2022-10-05T15:31:50.051Z,56.13
2022-10-05T15:34:25.744Z,56.17
2022-10-05T15:37:16.910Z,56.77
2022-10-05T15:39:54.772Z,56.45
2022-10-05T15:42:38.354Z,56.64
2022-10-05T15:45:25.793Z,55.63
2022-10-05T15:48:24.433Z,54.60
2022-10-05T15:51:15.345Z,53.24
2022-10-05T15:54:42.452Z,52.67
2022-10-05T15:57:18.172Z,53.31
2022-10-05T16:00:07.612Z,53.36
2022-10-05T16:03:08.679Z,53.67
2022-10-05T16:06:06.387Z,53.90
2022-10-05T16:08:59.747Z,53.91
2022-10-05T16:11:43.320Z,54.25
2022-10-05T16:14:19.901Z,54.39
2022-10-05T16:16:59.378Z,54.65
2022-10-05T16:19:43.527Z,55.16
2022-10-05T16:22:31.936Z,54.94
2022-10-05T16:25:10.955Z,55.46
2022-10-05T16:28:05.314Z,55.55
2022-10-05T16:31:10.863Z,55.99
2022-10-05T16:34:06.499Z,56.41
2022-10-05T16:36:57.908Z,56.55
2022-10-05T16:39:59.921Z,56.72
2022-10-05T16:43:30.164Z,56.83
2022-10-05T16:46:31.602Z,57.02
2022-10-05T16:49:12.753Z,57.37
2022-10-05T16:51:54.212Z,57.28
2022-10-05T16:54:32.568Z,57.29
2022-10-05T16:57:09.858Z,57.94
2022-10-05T17:00:17.697Z,57.84
2022-10-05T17:03:13.731Z,57.92
2022-10-05T17:06:08.447Z,57.97
2022-10-05T17:09:13.245Z,58.55
2022-10-05T17:12:39.456Z,58.60
2022-10-05T17:15:20.422Z,58.82
2022-10-05T17:17:59.463Z,58.95
2022-10-05T17:20:42.445Z,59.31
2022-10-05T17:23:50.978Z,59.31
2022-10-05T17:27:02.468Z,59.28
2022-10-05T17:29:54.904Z,59.74
2022-10-05T17:32:21.787Z,59.61
2022-10-05T17:35:22.114Z,59.79
2022-10-05T17:38:15.664Z,59.99
2022-10-05T17:41:11.667Z,60.12
2022-10-05T17:43:39.212Z,60.30
2022-10-05T17:46:09.897Z,60.20
2022-10-05T17:49:06.993Z,60.24
2022-10-05T17:51:52.993Z,60.17
2022-10-05T17:54:48.503Z,60.44
2022-10-05T17:57:37.117Z,60.29
2022-10-05T18:00:25.939Z,60.33
2022-10-05T18:02:58.384Z,60.28
2022-10-05T18:05:30.652Z,60.41
2022-10-05T18:08:20.214Z,60.29
2022-10-05T18:11:35.298Z,60.20
2022-10-05T18:14:25.153Z,60.57
2022-10-05T18:16:59.728Z,60.80
2022-10-05T18:19:32.199Z,60.80
2022-10-05T18:22:21.736Z,60.94
2022-10-05T18:25:38.247Z,61.10
2022-10-05T18:28:27.080Z,61.23
2022-10-05T18:31:21.158Z,61.40
2022-10-05T18:34:32.139Z,61.48
2022-10-05T18:37:25.755Z,61.42
2022-10-05T18:40:04.791Z,61.66
2022-10-05T18:43:02.667Z,61.80
2022-10-05T18:46:22.356Z,62.01
2022-10-05T18:49:26.936Z,61.99
2022-10-05T18:52:26.703Z,62.43
2022-10-05T18:55:10.403Z,62.56
2022-10-05T18:58:16.890Z,62.38
2022-10-05T19:01:35.118Z,62.64
2022-10-05T19:05:06.327Z,62.84
2022-10-05T19:07:59.112Z,63.31
2022-10-05T19:10:43.410Z,63.22
2022-10-05T19:13:56.210Z,63.43
2022-10-05T19:17:00.522Z,63.48
2022-10-05T19:20:03.054Z,63.53
2022-10-05T19:23:09.435Z,63.87
2022-10-05T19:26:02.559Z,63.87
2022-10-05T19:28:41.016Z,63.85
2022-10-05T19:31:45.421Z,64.30
2022-10-05T19:34:43.740Z,64.03
2022-10-05T19:37:36.043Z,64.23
2022-10-05T19:40:24.711Z,64.41
2022-10-05T19:43:23.566Z,64.46
2022-10-05T19:46:42.137Z,64.56
2022-10-05T19:49:12.866Z,64.71
2022-10-05T19:51:50.869Z,64.98
2022-10-05T19:54:30.800Z,65.01
2022-10-05T19:57:02.488Z,65.24
2022-10-05T19:59:34.162Z,65.20
2022-10-05T20:02:02.394Z,65.32
2022-10-05T20:04:41.532Z,65.15
2022-10-05T20:07:22.833Z,65.26
2022-10-05T20:10:24.594Z,65.30
2022-10-05T20:13:00.160Z,65.85
2022-10-05T20:15:55.310Z,66.54
2022-10-05T20:19:06.847Z,68.07
2022-10-05T20:21:49.170Z,69.30
2022-10-05T20:24:28.810Z,69.78
2022-10-05T20:27:06.545Z,70.15
2022-10-05T20:29:42.483Z,70.62
2022-10-05T20:32:17.662Z,70.97
2022-10-05T20:34:47.946Z,71.07
2022-10-05T20:37:19.258Z,71.39
2022-10-05T20:39:48.117Z,71.04
2022-10-05T20:42:15.075Z,71.11
2022-10-05T20:44:42.383Z,71.19
2022-10-05T20:47:10.290Z,71.22
2022-10-05T20:49:41.137Z,71.17
2022-10-05T20:52:11.417Z,70.88
2022-10-05T20:54:39.392Z,71.22
2022-10-05T20:57:06.621Z,71.04
2022-10-05T20:59:35.413Z,71.16
2022-10-05T21:02:03.798Z,71.38
2022-10-05T21:04:41.015Z,71.45
2022-10-05T21:07:08.887Z,71.95
2022-10-05T21:09:38.451Z,72.10
2022-10-05T21:12:05.699Z,72.84
2022-10-05T21:14:34.425Z,72.77
2022-10-05T21:17:03.641Z,72.98
2022-10-05T21:19:31.070Z,73.79
2022-10-05T21:21:59.230Z,73.69
2022-10-05T21:24:26.275Z,74.70
2022-10-05T21:26:57.591Z,74.74
2022-10-05T21:29:24.885Z,74.65
2022-10-05T21:31:52.379Z,75.03
2022-10-05T21:34:19.446Z,75.10
2022-10-05T21:36:47.034Z,75.17
2022-10-05T21:39:14.167Z,75.04
2022-10-05T21:41:41.187Z,75.40
2022-10-05T21:44:08.116Z,75.27
2022-10-05T21:46:38.007Z,75.57
2022-10-05T21:49:07.572Z,75.47
2022-10-05T21:51:37.032Z,75.72
2022-10-05T21:54:16.776Z,76.62
2022-10-05T21:56:50.679Z,76.36
2022-10-05T21:59:23.386Z,75.30
2022-10-05T22:01:50.386Z,77.05
2022-10-05T22:04:20.297Z,78.12
2022-10-05T22:06:48.969Z,79.63
2022-10-05T22:09:16.068Z,80.77
2022-10-05T22:11:47.789Z,81.85
2022-10-05T22:14:15.561Z,82.27
2022-10-05T22:16:44.622Z,83.14
2022-10-05T22:19:19.138Z,84.11
2022-10-05T22:21:46.223Z,84.51
2022-10-05T22:24:13.456Z,84.95
2022-10-05T22:26:46.894Z,84.88
2022-10-05T22:29:16.183Z,85.29
2022-10-05T22:31:48.586Z,86.34
2022-10-05T22:34:17.842Z,86.02
2022-10-05T22:36:45.835Z,85.58
2022-10-05T22:39:13.556Z,84.69
2022-10-05T22:41:40.517Z,84.16
2022-10-05T22:44:07.612Z,83.62
2022-10-05T22:46:35.479Z,83.08
2022-10-05T22:49:02.582Z,82.58
2022-10-05T22:51:29.649Z,82.05
2022-10-05T22:53:56.765Z,81.47
2022-10-05T22:56:23.819Z,80.76
2022-10-05T22:58:51.131Z,80.39
2022-10-05T23:01:20.023Z,79.54
2022-10-05T23:03:47.437Z,79.31
2022-10-05T23:06:20.822Z,78.94
2022-10-05T23:08:48.090Z,79.31
2022-10-05T23:11:23.543Z,79.27
2022-10-05T23:13:52.264Z,79.37
2022-10-05T23:16:23.723Z,79.49
2022-10-05T23:18:53.806Z,79.35
2022-10-05T23:21:23.844Z,79.40
2022-10-05T23:23:51.286Z,79.74
2022-10-05T23:26:23.087Z,79.43
2022-10-05T23:28:50.468Z,79.89
2022-10-05T23:31:22.943Z,79.75
2022-10-05T23:33:51.272Z,79.80
2022-10-05T23:36:22.052Z,79.89
2022-10-05T23:38:49.905Z,79.84
2022-10-05T23:41:19.596Z,79.81
2022-10-05T23:43:47.248Z,79.91
2022-10-05T23:46:14.949Z,79.93
2022-10-05T23:48:42.031Z,79.82
2022-10-05T23:51:11.740Z,79.94
2022-10-05T23:53:38.877Z,79.91
2022-10-05T23:56:06.224Z,79.76
2022-10-05T23:58:33.263Z,79.65
